Time;durP1;ratioP1;P1;durP2;ratioP2;P2;SDS_P1;SDS_P2;PMS_P1;PMS_P2;Temp;Humidity;BMP_temperature;BMP_pressure;BME280_temperature;BME280_humidity;BME280_pressure;Samples;Min_cycle;Max_cycle;Signal;HPM_P1;HPM_P2
2021/03/28 00:01:06;;;;;;;4.67;3.10;;;3.70;86.50;;;;;;5002060;28;20450;-59
2021/03/28 00:03:39;;;;;;;5.00;3.10;;;3.60;87.20;;;;;;5000904;28;20461;-58
2021/03/28 00:06:35;;;;;;;8.60;3.40;;;3.50;87.30;;;;;;4993931;28;20491;-60
2021/03/28 00:09:25;;;;;;;5.20;3.20;;;3.40;87.70;;;;;;4969200;28;20520;-59
2021/03/28 00:11:59;;;;;;;4.30;2.90;;;3.30;88.50;;;;;;4988190;28;20835;-60
2021/03/28 00:14:45;;;;;;;6.00;2.97;;;3.20;89.10;;;;;;4996687;28;20430;-59
2021/03/28 00:17:19;;;;;;;7.77;4.57;;;3.20;89.80;;;;;;4992621;28;20484;-58
2021/03/28 00:20:14;;;;;;;5.83;2.97;;;3.20;90.20;;;;;;5007964;28;21105;-60
2021/03/28 00:23:01;;;;;;;7.60;3.43;;;3.20;90.20;;;;;;4991814;28;20543;-59
2021/03/28 00:25:52;;;;;;;7.00;3.37;;;3.10;90.10;;;;;;4994303;28;20778;-58
2021/03/28 00:28:36;;;;;;;5.00;3.20;;;3.10;90.20;;;;;;4991408;28;20434;-57
2021/03/28 00:31:32;;;;;;;4.70;2.93;;;3.10;90.20;;;;;;4992921;28;20415;-61
2021/03/28 00:34:18;;;;;;;5.73;3.20;;;3.10;90.00;;;;;;4975283;28;20442;-62
2021/03/28 00:36:47;;;;;;;4.60;3.07;;;3.10;89.50;;;;;;4992244;28;20475;-59
2021/03/28 00:39:30;;;;;;;5.50;2.70;;;3.10;89.60;;;;;;4998485;28;20449;-59
2021/03/28 00:42:02;;;;;;;5.40;2.70;;;3.00;89.60;;;;;;5019774;28;20430;-62
2021/03/28 00:44:29;;;;;;;6.30;2.93;;;3.00;90.10;;;;;;5014462;28;20464;-60
2021/03/28 00:47:02;;;;;;;7.50;2.90;;;2.90;90.10;;;;;;5010807;28;20463;-59
2021/03/28 00:49:38;;;;;;;5.63;3.00;;;2.90;90.20;;;;;;5008707;28;20985;-62
2021/03/28 00:52:32;;;;;;;7.53;3.03;;;2.80;90.40;;;;;;5008712;28;20523;-59
2021/03/28 00:55:24;;;;;;;5.20;2.57;;;2.80;90.60;;;;;;4991622;28;20442;-59
2021/03/28 00:58:13;;;;;;;4.87;2.60;;;2.70;90.60;;;;;;4985204;28;20443;-60
2021/03/28 01:00:38;;;;;;;6.70;2.93;;;2.70;90.90;;;;;;4999281;28;20502;-60
2021/03/28 01:03:19;;;;;;;4.53;2.80;;;2.60;91.00;;;;;;5000681;28;20568;-60
2021/03/28 01:05:51;;;;;;;3.67;2.50;;;2.60;91.10;;;;;;5013922;28;20167;-64
2021/03/28 01:08:22;;;;;;;4.23;2.90;;;2.60;91.20;;;;;;5024185;28;20416;-67
2021/03/28 01:11:20;;;;;;;9.40;3.83;;;2.60;91.50;;;;;;5011495;28;20439;-59
2021/03/28 01:13:51;;;;;;;10.20;2.77;;;2.50;91.30;;;;;;5005475;28;20551;-61
2021/03/28 01:16:57;;;;;;;8.43;2.73;;;2.50;91.40;;;;;;4996503;28;20435;-60
2021/03/28 01:19:53;;;;;;;4.90;2.80;;;2.40;91.80;;;;;;5004780;28;20973;-61
2021/03/28 01:22:40;;;;;;;3.60;3.10;;;2.40;91.80;;;;;;4993863;28;20436;-59
2021/03/28 01:25:18;;;;;;;6.93;3.00;;;2.40;91.90;;;;;;4998387;28;20481;-58
2021/03/28 01:28:01;;;;;;;3.50;3.10;;;2.40;92.00;;;;;;4992423;28;20791;-60
2021/03/28 01:30:41;;;;;;;4.83;3.00;;;2.40;91.90;;;;;;4997782;28;20604;-58
2021/03/28 01:33:17;;;;;;;6.17;2.97;;;2.40;91.90;;;;;;4999052;28;20474;-58
2021/03/28 01:36:03;;;;;;;3.33;2.40;;;2.40;91.70;;;;;;4999901;28;20430;-60
2021/03/28 01:38:45;;;;;;;4.67;2.67;;;2.30;91.50;;;;;;5002757;28;20484;-62
2021/03/28 01:41:24;;;;;;;4.37;2.20;;;2.30;91.30;;;;;;4999039;28;20419;-63
2021/03/28 01:43:54;;;;;;;4.90;2.63;;;2.20;91.20;;;;;;5011490;28;20797;-62
2021/03/28 01:46:29;;;;;;;4.80;2.50;;;2.20;91.30;;;;;;5008940;28;20944;-59
2021/03/28 01:48:58;;;;;;;4.93;2.67;;;2.10;91.50;;;;;;5000858;28;20458;-60
2021/03/28 01:51:32;;;;;;;6.60;3.50;;;2.00;91.70;;;;;;4995801;28;20472;-58
2021/03/28 01:54:13;;;;;;;4.73;2.70;;;2.00;92.20;;;;;;4995817;28;20440;-61
2021/03/28 01:56:38;;;;;;;4.73;3.00;;;1.90;92.60;;;;;;4994201;28;20884;-64
2021/03/28 01:59:47;;;;;;;7.73;2.70;;;1.90;92.80;;;;;;4993271;28;21064;-57
2021/03/28 02:02:22;;;;;;;7.67;2.70;;;1.90;92.90;;;;;;5012540;28;20667;-59
2021/03/28 02:05:16;;;;;;;5.87;2.90;;;1.80;93.00;;;;;;4997278;28;20422;-61
2021/03/28 02:07:59;;;;;;;5.50;2.60;;;1.80;93.00;;;;;;4992961;28;20427;-60
2021/03/28 02:10:31;;;;;;;10.80;3.50;;;1.80;93.10;;;;;;4993590;28;22289;-61
2021/03/28 02:13:12;;;;;;;4.00;2.53;;;1.80;93.10;;;;;;4996506;28;20436;-60
2021/03/28 02:16:03;;;;;;;3.73;2.63;;;1.80;93.00;;;;;;4994469;28;20433;-60
2021/03/28 02:18:51;;;;;;;10.53;3.60;;;1.80;93.00;;;;;;4992414;28;20430;-60
2021/03/28 02:21:31;;;;;;;4.30;2.90;;;1.70;93.40;;;;;;4995583;28;20542;-59
2021/03/28 02:24:09;;;;;;;6.80;2.70;;;1.70;93.20;;;;;;4991169;28;20469;-71
2021/03/28 02:27:03;;;;;;;8.47;3.13;;;1.70;93.30;;;;;;4995965;28;20465;-60
2021/03/28 02:30:06;;;;;;;9.57;3.33;;;1.60;93.30;;;;;;4994440;28;20451;-60
2021/03/28 02:32:53;;;;;;;6.17;2.80;;;1.60;93.10;;;;;;4995446;28;20860;-60
2021/03/28 02:35:56;;;;;;;5.73;2.83;;;1.60;93.30;;;;;;5013691;28;20834;-62
2021/03/28 02:38:48;;;;;;;5.33;2.60;;;1.60;93.40;;;;;;4996568;28;20452;-60
2021/03/28 02:41:42;;;;;;;4.07;2.63;;;1.60;93.60;;;;;;4988322;28;20477;-62
2021/03/28 02:44:23;;;;;;;4.00;2.23;;;1.60;93.70;;;;;;4992262;28;20537;-60
2021/03/28 02:47:04;;;;;;;5.57;2.90;;;1.50;93.60;;;;;;4996684;28;20450;-60
2021/03/28 02:50:09;;;;;;;9.23;2.90;;;1.50;93.60;;;;;;4995070;28;20539;-59
2021/03/28 02:52:58;;;;;;;11.00;3.00;;;1.50;93.60;;;;;;4997439;28;20938;-61
2021/03/28 02:55:34;;;;;;;6.03;2.80;;;1.50;93.90;;;;;;4997690;28;20446;-59
2021/03/28 02:58:09;;;;;;;5.00;3.20;;;1.50;93.90;;;;;;4998446;28;21194;-60
2021/03/28 03:00:40;;;;;;;5.57;3.20;;;1.50;93.80;;;;;;4990155;28;20520;-60
2021/03/28 03:03:26;;;;;;;11.27;3.10;;;1.40;93.70;;;;;;4996970;28;20534;-59
2021/03/28 03:06:26;;;;;;;2.30;2.10;;;1.40;93.90;;;;;;5010312;28;21020;-58
2021/03/28 03:09:24;;;;;;;7.63;3.20;;;1.40;94.00;;;;;;4992123;28;20543;-59
2021/03/28 03:12:08;;;;;;;5.50;3.23;;;1.30;94.10;;;;;;4997093;28;20616;-59
2021/03/28 03:14:39;;;;;;;7.10;3.30;;;1.30;94.10;;;;;;4997716;28;21044;-62
2021/03/28 03:17:32;;;;;;;8.37;2.93;;;1.30;94.30;;;;;;4997513;28;20805;-57
2021/03/28 03:20:13;;;;;;;5.87;3.00;;;1.30;94.40;;;;;;4990786;28;20877;-57
2021/03/28 03:23:04;;;;;;;5.60;3.00;;;1.30;94.50;;;;;;4993409;28;20453;-62
2021/03/28 03:25:54;;;;;;;5.70;2.73;;;1.20;94.80;;;;;;5003444;28;20437;-58
2021/03/28 03:28:52;;;;;;;4.30;2.80;;;1.20;94.40;;;;;;4997911;28;20432;-60
2021/03/28 03:31:50;;;;;;;4.47;2.40;;;1.20;94.50;;;;;;4997101;28;20464;-61
2021/03/28 03:34:28;;;;;;;4.80;2.60;;;1.20;94.40;;;;;;4952368;28;20844;-57
2021/03/28 03:37:15;;;;;;;4.17;3.50;;;1.20;94.40;;;;;;4992769;28;20436;-57
2021/03/28 03:39:46;;;;;;;8.60;3.37;;;1.20;94.50;;;;;;4991787;28;20454;-61
2021/03/28 03:42:37;;;;;;;14.00;5.50;;;1.10;94.30;;;;;;4992223;28;20520;-61
2021/03/28 03:45:57;;;;;;;8.87;3.70;;;1.10;94.40;;;;;;4998282;28;20445;-59
2021/03/28 03:48:58;;;;;;;8.43;3.47;;;1.00;94.40;;;;;;4976490;28;20476;-61
2021/03/28 03:51:44;;;;;;;5.13;2.97;;;1.00;94.80;;;;;;4965018;28;20697;-60
2021/03/28 03:54:57;;;;;;;5.00;3.00;;;1.00;94.90;;;;;;4998864;28;20496;-60
2021/03/28 03:57:31;;;;;;;3.30;2.60;;;0.90;95.00;;;;;;4990707;28;20504;-61
2021/03/28 04:00:17;;;;;;;6.10;2.80;;;0.90;95.00;;;;;;5031295;28;20466;-62
2021/03/28 04:03:01;;;;;;;4.60;2.83;;;0.90;94.90;;;;;;4997706;28;20583;-61
2021/03/28 04:05:29;;;;;;;8.43;2.70;;;0.90;94.90;;;;;;4998781;28;20435;-61
2021/03/28 04:08:16;;;;;;;4.77;2.70;;;0.90;94.90;;;;;;4993065;28;20521;-57
2021/03/28 04:11:19;;;;;;;3.10;2.80;;;0.90;95.00;;;;;;4989971;28;21942;-63
2021/03/28 04:14:06;;;;;;;5.80;3.03;;;0.90;95.00;;;;;;4992134;28;20532;-59
2021/03/28 04:16:50;;;;;;;8.80;3.50;;;0.90;95.10;;;;;;4993433;28;20528;-66
2021/03/28 04:19:31;;;;;;;8.97;4.30;;;0.80;95.10;;;;;;4991157;28;20551;-57
2021/03/28 04:22:15;;;;;;;6.60;3.53;;;0.80;95.20;;;;;;4991677;28;20435;-62
2021/03/28 04:24:59;;;;;;;7.00;2.67;;;0.80;95.20;;;;;;5004937;28;20456;-60
2021/03/28 04:27:46;;;;;;;3.07;2.83;;;0.80;95.30;;;;;;4996039;28;20425;-60
2021/03/28 04:30:51;;;;;;;3.47;3.10;;;0.80;95.30;;;;;;4995961;28;20485;-59
2021/03/28 04:33:25;;;;;;;6.87;3.10;;;0.80;95.40;;;;;;5000082;28;20441;-60
2021/03/28 04:36:06;;;;;;;6.10;3.37;;;0.80;95.20;;;;;;4998924;28;20586;-62
2021/03/28 04:38:46;;;;;;;10.73;3.53;;;0.80;95.20;;;;;;4995066;28;20447;-61
2021/03/28 04:41:34;;;;;;;6.00;3.60;;;0.70;95.20;;;;;;4997841;28;20440;-62
2021/03/28 04:44:31;;;;;;;6.30;2.83;;;0.70;95.20;;;;;;4996654;28;20473;-62
2021/03/28 04:47:15;;;;;;;4.37;2.53;;;0.70;95.30;;;;;;4994573;28;20438;-56
2021/03/28 04:49:47;;;;;;;6.93;3.33;;;0.70;95.40;;;;;;5017782;28;20719;-64
2021/03/28 04:52:50;;;;;;;7.43;3.10;;;0.70;95.50;;;;;;5018962;28;20429;-64
2021/03/28 04:55:38;;;;;;;5.73;3.47;;;0.70;95.60;;;;;;5020591;28;21214;-61
2021/03/28 04:58:09;;;;;;;3.07;2.60;;;0.70;95.70;;;;;;5008390;28;21828;-59
2021/03/28 05:01:01;;;;;;;4.17;2.93;;;0.70;95.60;;;;;;5021675;22;20500;-61
2021/03/28 05:04:07;;;;;;;8.63;2.80;;;0.70;95.70;;;;;;4999745;28;20458;-60
2021/03/28 05:07:07;;;;;;;4.77;2.90;;;0.70;95.50;;;;;;5010818;28;20984;-60
2021/03/28 05:09:32;;;;;;;7.93;2.90;;;0.70;95.40;;;;;;4997224;28;20571;-60
2021/03/28 05:12:35;;;;;;;4.80;2.60;;;0.70;95.40;;;;;;5002863;28;21044;-60
2021/03/28 05:15:28;;;;;;;7.27;2.40;;;0.70;95.40;;;;;;5003235;28;20209;-62
2021/03/28 05:18:31;;;;;;;2.87;2.50;;;0.60;95.40;;;;;;4998485;28;20433;-60
2021/03/28 05:21:29;;;;;;;10.03;2.80;;;0.60;95.20;;;;;;5002386;28;20540;-60
2021/03/28 05:24:31;;;;;;;7.90;2.30;;;0.60;95.20;;;;;;5002896;28;21034;-60
2021/03/28 05:27:28;;;;;;;8.30;3.30;;;0.60;95.30;;;;;;4992744;28;20433;-61
2021/03/28 05:30:19;;;;;;;3.70;2.90;;;0.60;95.30;;;;;;4998770;28;20472;-61
2021/03/28 05:33:00;;;;;;;4.73;2.63;;;0.60;95.40;;;;;;5006983;28;20536;-63
2021/03/28 05:35:31;;;;;;;6.80;3.17;;;0.50;95.50;;;;;;4996487;28;20445;-62
2021/03/28 05:38:24;;;;;;;4.83;3.67;;;0.50;95.60;;;;;;4992957;28;20453;-61
2021/03/28 05:41:17;;;;;;;10.00;3.63;;;0.50;95.60;;;;;;5001672;28;20460;-61
2021/03/28 05:44:12;;;;;;;12.63;3.87;;;0.50;95.60;;;;;;4988551;28;20958;-62
2021/03/28 05:47:02;;;;;;;8.40;3.53;;;0.50;95.70;;;;;;4996369;28;21767;-60
2021/03/28 05:49:42;;;;;;;10.53;3.07;;;0.50;95.80;;;;;;4995357;28;20460;-62
2021/03/28 05:52:42;;;;;;;8.00;3.47;;;0.40;96.00;;;;;;4999458;28;20472;-61
2021/03/28 05:55:57;;;;;;;5.67;3.13;;;0.50;96.20;;;;;;5000982;28;20454;-62
2021/03/28 05:58:46;;;;;;;5.20;3.13;;;0.40;96.30;;;;;;4924945;29;20453;-61
2021/03/28 06:01:30;;;;;;;7.63;3.20;;;0.50;96.20;;;;;;4923905;29;20450;-63
2021/03/28 06:04:15;;;;;;;11.53;4.30;;;0.60;96.20;;;;;;4982390;28;20958;-63
2021/03/28 06:06:59;;;;;;;6.20;3.37;;;0.60;96.10;;;;;;5002098;28;20424;-62
2021/03/28 06:10:06;;;;;;;6.50;3.40;;;0.60;96.00;;;;;;5006940;28;20496;-61
2021/03/28 06:12:37;;;;;;;8.57;3.50;;;0.70;95.90;;;;;;4984316;28;20448;-62
2021/03/28 06:15:22;;;;;;;5.80;3.80;;;0.80;96.00;;;;;;4999203;28;20476;-61
2021/03/28 06:18:19;;;;;;;11.53;4.27;;;0.90;95.80;;;;;;5000856;28;20438;-61
2021/03/28 06:21:05;;;;;;;4.80;3.27;;;1.00;95.40;;;;;;5000993;28;20463;-62
2021/03/28 06:24:08;;;;;;;7.90;3.43;;;1.10;95.30;;;;;;4993884;28;20460;-61
2021/03/28 06:27:20;;;;;;;4.00;3.10;;;1.20;95.40;;;;;;4981352;28;20966;-62
2021/03/28 06:30:25;;;;;;;6.93;3.43;;;1.30;95.50;;;;;;4988601;28;20483;-62
2021/03/28 06:33:02;;;;;;;6.80;4.40;;;1.40;95.30;;;;;;4986805;28;20468;-63
2021/03/28 06:35:47;;;;;;;8.30;3.40;;;1.40;95.00;;;;;;4986511;28;20445;-61
2021/03/28 06:38:24;;;;;;;4.73;3.27;;;1.50;95.10;;;;;;4996257;28;20441;-60
2021/03/28 06:40:56;;;;;;;8.67;3.33;;;1.50;95.20;;;;;;4997143;28;21161;-61
2021/03/28 06:43:48;;;;;;;3.60;2.77;;;1.60;95.00;;;;;;5000334;28;20480;-61
2021/03/28 06:46:35;;;;;;;5.90;3.27;;;1.70;94.70;;;;;;4993475;28;21282;-61
2021/03/28 06:49:38;;;;;;;9.00;3.70;;;1.80;94.30;;;;;;4996526;28;20487;-60
2021/03/28 06:52:16;;;;;;;5.87;3.60;;;1.90;94.40;;;;;;4998478;28;20809;-61
2021/03/28 06:54:58;;;;;;;5.73;2.90;;;2.00;94.50;;;;;;5006397;28;20439;-61
2021/03/28 06:58:10;;;;;;;9.93;3.27;;;2.00;94.50;;;;;;5005070;28;20445;-60
2021/03/28 07:00:58;;;;;;;4.10;3.30;;;2.10;94.20;;;;;;5015956;28;20480;-61
2021/03/28 07:03:32;;;;;;;8.33;4.00;;;2.20;94.40;;;;;;4998954;28;20605;-61
2021/03/28 07:06:16;;;;;;;13.77;4.40;;;2.30;94.30;;;;;;4998632;28;20443;-62
2021/03/28 07:09:05;;;;;;;4.63;3.60;;;2.30;94.10;;;;;;4996260;28;20980;-60
2021/03/28 07:11:57;;;;;;;5.70;3.40;;;2.40;94.20;;;;;;4968355;28;20452;-61
2021/03/28 07:14:41;;;;;;;5.87;3.20;;;2.50;93.80;;;;;;4998882;28;21019;-61
2021/03/28 07:17:40;;;;;;;7.10;3.53;;;2.60;93.70;;;;;;5000761;28;20443;-62
2021/03/28 07:20:31;;;;;;;5.90;3.00;;;2.80;93.60;;;;;;4997791;28;20488;-61
2021/03/28 07:23:08;;;;;;;5.83;2.80;;;2.90;93.00;;;;;;5002521;28;20464;-60
2021/03/28 07:26:06;;;;;;;8.40;2.97;;;3.00;92.30;;;;;;4998299;28;20421;-60
2021/03/28 07:28:56;;;;;;;4.53;2.87;;;3.00;91.90;;;;;;4997775;28;20440;-60
2021/03/28 07:31:42;;;;;;;3.27;2.57;;;3.20;91.70;;;;;;4999251;28;20526;-62
2021/03/28 07:34:45;;;;;;;5.03;3.03;;;3.30;91.60;;;;;;5005673;28;20444;-61
2021/03/28 07:37:29;;;;;;;6.00;3.13;;;3.40;91.70;;;;;;5007068;28;20435;-60
2021/03/28 07:40:34;;;;;;;4.37;3.00;;;3.50;91.70;;;;;;4999184;28;20472;-61
2021/03/28 07:43:31;;;;;;;8.30;3.77;;;3.70;91.30;;;;;;4997133;28;20468;-60
2021/03/28 07:46:21;;;;;;;8.90;3.50;;;3.90;91.00;;;;;;4998773;28;20427;-63
2021/03/28 07:48:53;;;;;;;4.30;3.73;;;4.00;90.60;;;;;;4999509;28;20468;-61
2021/03/28 07:51:30;;;;;;;3.30;2.90;;;4.00;90.90;;;;;;4996307;28;20446;-64
2021/03/28 07:54:24;;;;;;;7.03;3.20;;;4.10;90.80;;;;;;4998616;28;20465;-63
2021/03/28 07:57:19;;;;;;;6.13;2.77;;;4.30;90.60;;;;;;5002634;28;20446;-63
2021/03/28 07:59:59;;;;;;;8.13;2.97;;;4.40;90.50;;;;;;4997661;28;21178;-63
2021/03/28 08:02:40;;;;;;;5.03;3.03;;;4.60;90.20;;;;;;4996285;28;20436;-64
2021/03/28 08:05:27;;;;;;;10.13;3.20;;;4.70;90.50;;;;;;5011361;28;20439;-58
2021/03/28 08:07:54;;;;;;;8.37;3.07;;;4.90;89.50;;;;;;5006607;28;20505;-60
2021/03/28 08:10:25;;;;;;;4.47;2.87;;;5.00;88.00;;;;;;4995829;28;20454;-62
2021/03/28 08:13:26;;;;;;;4.47;2.50;;;5.10;87.60;;;;;;4998985;28;20439;-62
2021/03/28 08:16:00;;;;;;;3.97;2.60;;;5.20;86.20;;;;;;5003648;28;20503;-63
2021/03/28 08:18:39;;;;;;;3.47;2.40;;;5.40;86.20;;;;;;5002237;28;20543;-63
2021/03/28 08:21:31;;;;;;;8.27;2.57;;;5.50;85.90;;;;;;4995969;28;20508;-60
2021/03/28 08:24:50;;;;;;;10.73;3.00;;;5.80;85.90;;;;;;5003271;28;20471;-64
2021/03/28 08:27:54;;;;;;;10.67;2.60;;;6.10;83.00;;;;;;4940606;28;20443;-61
2021/03/28 08:30:23;;;;;;;12.33;3.10;;;6.40;80.90;;;;;;4940405;29;20461;-60
2021/03/28 08:33:10;;;;;;;7.73;3.10;;;6.50;75.50;;;;;;4992363;28;20955;-61
2021/03/28 08:35:48;;;;;;;4.27;2.57;;;6.70;75.50;;;;;;5004197;28;20435;-65
2021/03/28 08:38:28;;;;;;;7.37;2.90;;;6.90;75.10;;;;;;5003654;28;20428;-62
2021/03/28 08:41:20;;;;;;;6.20;2.80;;;7.10;75.00;;;;;;4997670;28;20930;-67
2021/03/28 08:44:15;;;;;;;6.33;2.53;;;7.20;74.00;;;;;;4997524;28;20477;-63
2021/03/28 08:47:02;;;;;;;4.83;2.70;;;7.30;71.10;;;;;;5004603;28;20435;-64
2021/03/28 08:50:02;;;;;;;8.40;2.67;;;7.50;68.80;;;;;;5000710;28;20447;-62
2021/03/28 08:53:05;;;;;;;12.70;3.27;;;7.70;63.60;;;;;;4998676;28;20864;-64
2021/03/28 08:55:50;;;;;;;7.20;2.77;;;7.90;58.60;;;;;;4999211;28;20999;-60
2021/03/28 08:58:23;;;;;;;8.60;3.50;;;8.10;57.40;;;;;;4997390;28;21503;-63
2021/03/28 09:01:13;;;;;;;5.70;2.33;;;8.20;56.50;;;;;;4998866;28;20941;-63
2021/03/28 09:04:04;;;;;;;8.23;2.10;;;8.40;54.70;;;;;;4996061;28;20542;-64
2021/03/28 09:06:49;;;;;;;6.33;2.00;;;8.60;52.80;;;;;;5001570;28;20450;-63
2021/03/28 09:09:51;;;;;;;6.00;2.00;;;8.70;51.20;;;;;;4997724;28;20939;-63
2021/03/28 09:12:17;;;;;;;7.80;1.90;;;8.90;49.70;;;;;;5008762;28;20423;-62
2021/03/28 09:14:59;;;;;;;5.40;2.27;;;9.00;48.70;;;;;;4995360;28;20531;-62
2021/03/28 09:17:42;;;;;;;4.00;1.90;;;9.20;46.50;;;;;;4999531;28;20183;-62
2021/03/28 09:20:29;;;;;;;3.37;1.70;;;9.40;46.20;;;;;;5002000;28;20455;-63
2021/03/28 09:23:13;;;;;;;4.90;2.83;;;9.60;45.80;;;;;;5009008;28;20455;-67
2021/03/28 09:26:04;;;;;;;4.90;2.00;;;9.80;45.60;;;;;;5009204;28;20427;-63
2021/03/28 09:29:00;;;;;;;5.53;2.40;;;9.90;45.00;;;;;;4987370;28;20513;-62
2021/03/28 09:31:49;;;;;;;5.57;2.73;;;10.00;43.50;;;;;;4996054;28;21082;-64
2021/03/28 09:34:53;;;;;;;7.43;2.90;;;10.20;44.10;;;;;;5008721;28;20967;-61
2021/03/28 09:37:43;;;;;;;3.43;2.17;;;10.30;42.80;;;;;;5008712;28;20954;-60
2021/03/28 09:40:21;;;;;;;4.03;2.33;;;10.40;42.90;;;;;;4999879;28;20888;-60
2021/03/28 09:42:58;;;;;;;9.07;2.53;;;10.50;43.00;;;;;;5010493;28;20443;-60
2021/03/28 09:45:38;;;;;;;7.93;2.70;;;10.60;42.30;;;;;;5005275;28;20459;-63
2021/03/28 09:48:42;;;;;;;5.53;2.60;;;10.60;42.30;;;;;;5006883;28;20435;-65
2021/03/28 09:51:36;;;;;;;5.23;2.40;;;10.70;42.80;;;;;;5016719;28;20462;-69
2021/03/28 09:54:20;;;;;;;5.77;2.30;;;10.90;43.40;;;;;;5009001;28;20775;-69
2021/03/28 09:57:16;;;;;;;5.83;2.63;;;11.00;43.00;;;;;;5001572;28;20482;-60
2021/03/28 10:00:00;;;;;;;6.07;2.30;;;11.10;42.50;;;;;;5005231;28;20484;-62
2021/03/28 10:02:37;;;;;;;10.80;2.93;;;11.30;42.70;;;;;;5003694;28;20455;-64
2021/03/28 10:05:09;;;;;;;6.97;2.90;;;11.30;42.80;;;;;;4998296;28;20847;-61
2021/03/28 10:07:35;;;;;;;9.43;2.57;;;11.50;42.50;;;;;;5002160;28;20440;-66
2021/03/28 10:10:00;;;;;;;5.60;2.37;;;11.50;41.50;;;;;;4993324;28;20448;-62
2021/03/28 10:12:46;;;;;;;6.30;2.90;;;11.50;41.40;;;;;;4988584;28;20268;-62
2021/03/28 10:15:21;;;;;;;11.03;2.47;;;11.60;41.80;;;;;;5001529;28;20594;-64
2021/03/28 10:17:54;;;;;;;8.00;2.60;;;11.60;42.80;;;;;;5003914;28;20439;-61
2021/03/28 10:20:40;;;;;;;5.97;3.17;;;11.70;42.90;;;;;;5007299;28;20459;-62
2021/03/28 10:23:32;;;;;;;8.80;3.50;;;11.90;41.90;;;;;;4995590;28;20494;-63
2021/03/28 10:26:24;;;;;;;4.33;2.70;;;12.00;42.10;;;;;;5003436;28;20811;-62
2021/03/28 10:28:49;;;;;;;7.50;2.90;;;12.10;40.70;;;;;;4992219;28;20436;-64
2021/03/28 10:31:22;;;;;;;8.40;3.00;;;12.20;41.60;;;;;;5002328;28;20430;-65
2021/03/28 10:33:51;;;;;;;10.13;3.53;;;12.20;41.40;;;;;;5004788;28;20173;-62
2021/03/28 10:36:53;;;;;;;5.50;2.80;;;12.20;40.00;;;;;;5001216;28;20439;-66
2021/03/28 10:39:50;;;;;;;9.87;2.50;;;12.10;39.80;;;;;;4998424;28;20688;-67
2021/03/28 10:42:43;;;;;;;3.23;2.03;;;12.10;39.30;;;;;;4997616;28;20458;-62
2021/03/28 10:45:30;;;;;;;3.10;1.90;;;12.20;38.50;;;;;;5004175;28;21004;-64
2021/03/28 10:48:40;;;;;;;7.63;2.13;;;12.20;38.50;;;;;;5001328;28;20442;-64
2021/03/28 10:51:31;;;;;;;9.83;2.27;;;12.40;37.90;;;;;;4988655;28;20454;-64
2021/03/28 10:54:02;;;;;;;6.33;2.30;;;12.50;38.70;;;;;;5005037;28;20435;-64
2021/03/28 10:56:47;;;;;;;7.10;2.40;;;12.60;38.70;;;;;;5005425;28;20458;-63
2021/03/28 10:59:28;;;;;;;4.03;2.17;;;12.70;38.00;;;;;;5002927;28;20443;-63
2021/03/28 11:02:30;;;;;;;8.30;2.47;;;12.90;39.10;;;;;;5006192;28;20454;-63
2021/03/28 11:05:20;;;;;;;2.87;2.00;;;13.00;37.90;;;;;;5000970;28;20545;-64
2021/03/28 11:08:15;;;;;;;7.80;2.80;;;13.10;38.30;;;;;;5014641;28;20431;-63
2021/03/28 11:11:14;;;;;;;7.43;2.30;;;13.20;36.50;;;;;;5003409;28;20519;-64
2021/03/28 11:13:48;;;;;;;3.27;2.10;;;13.20;37.20;;;;;;4998998;28;21259;-63
2021/03/28 11:16:24;;;;;;;7.93;2.20;;;13.30;37.30;;;;;;5008083;28;20848;-64
2021/03/28 11:18:56;;;;;;;7.90;2.43;;;13.40;36.10;;;;;;5004284;28;20526;-62
2021/03/28 11:21:31;;;;;;;8.53;2.83;;;13.40;35.80;;;;;;5002546;28;20423;-62
2021/03/28 11:24:06;;;;;;;5.63;2.30;;;13.40;35.60;;;;;;5013636;28;20458;-63
2021/03/28 11:26:49;;;;;;;10.50;2.70;;;13.40;34.70;;;;;;5004952;28;20514;-64
2021/03/28 11:29:51;;;;;;;5.13;2.33;;;13.40;35.10;;;;;;5003013;28;20501;-62
2021/03/28 11:32:58;;;;;;;5.77;2.03;;;13.50;34.40;;;;;;4992200;28;20432;-61
2021/03/28 11:35:50;;;;;;;7.23;3.20;;;13.60;35.00;;;;;;4936513;28;20522;-65
2021/03/28 11:38:16;;;;;;;5.07;2.50;;;13.70;35.10;;;;;;4935707;28;20466;-65
2021/03/28 11:40:48;;;;;;;5.40;2.40;;;13.80;34.70;;;;;;4975463;28;21059;-63
2021/03/28 11:43:29;;;;;;;6.17;3.03;;;14.00;34.70;;;;;;5002121;28;20225;-61
2021/03/28 11:46:04;;;;;;;2.60;2.30;;;14.20;35.10;;;;;;4998355;28;20510;-62
2021/03/28 11:48:51;;;;;;;4.83;2.50;;;14.40;34.70;;;;;;5000059;28;21238;-63
2021/03/28 11:51:31;;;;;;;4.03;2.20;;;14.50;33.20;;;;;;4989720;28;20423;-64
2021/03/28 11:54:09;;;;;;;6.83;2.70;;;14.60;34.00;;;;;;4998590;28;20423;-62
2021/03/28 11:56:54;;;;;;;8.37;2.87;;;14.80;33.50;;;;;;4999406;28;20948;-64
2021/03/28 11:59:26;;;;;;;4.67;2.70;;;15.00;34.20;;;;;;4997673;28;20474;-66
2021/03/28 12:01:59;;;;;;;4.70;2.67;;;15.20;35.70;;;;;;4999999;28;20432;-66
2021/03/28 12:04:41;;;;;;;6.80;2.43;;;15.40;33.40;;;;;;4996102;28;21002;-65
2021/03/28 12:07:31;;;;;;;6.03;2.70;;;15.50;33.20;;;;;;5001337;28;20427;-68
2021/03/28 12:10:00;;;;;;;7.60;3.03;;;15.60;34.80;;;;;;4999516;28;20451;-65
2021/03/28 12:12:48;;;;;;;6.23;2.60;;;15.80;36.80;;;;;;5006964;28;20415;-63
2021/03/28 12:15:42;;;;;;;6.17;2.63;;;15.80;33.90;;;;;;5008258;28;20435;-63
2021/03/28 12:18:24;;;;;;;3.57;2.70;;;15.70;33.00;;;;;;5002175;28;20434;-64
2021/03/28 12:20:59;;;;;;;4.20;2.47;;;15.80;33.40;;;;;;5005004;28;20451;-65
2021/03/28 12:23:48;;;;;;;5.20;3.43;;;16.00;35.30;;;;;;5004724;28;20458;-65
2021/03/28 12:26:17;;;;;;;4.00;2.77;;;16.30;34.60;;;;;;4999925;28;20428;-65
2021/03/28 12:28:49;;;;;;;6.57;2.80;;;16.50;32.40;;;;;;5008814;28;20430;-64
2021/03/28 12:31:50;;;;;;;7.20;2.73;;;16.70;33.10;;;;;;4999248;28;20434;-65
2021/03/28 12:34:30;;;;;;;8.53;3.00;;;16.80;33.40;;;;;;4999524;28;20431;-64
2021/03/28 12:37:08;;;;;;;4.33;2.40;;;17.10;33.70;;;;;;4997560;28;20566;-60
2021/03/28 12:39:36;;;;;;;4.40;2.83;;;17.20;32.40;;;;;;4996428;28;20989;-60
2021/03/28 12:42:01;;;;;;;6.70;2.67;;;17.20;31.40;;;;;;4999389;28;20463;-66
2021/03/28 12:44:37;;;;;;;8.00;3.93;;;17.20;31.80;;;;;;4998476;28;20507;-67
2021/03/28 12:47:22;;;;;;;4.60;3.10;;;16.90;30.60;;;;;;5004484;28;20259;-66
2021/03/28 12:49:50;;;;;;;5.10;2.70;;;16.70;31.20;;;;;;5004764;28;20461;-64
2021/03/28 12:52:37;;;;;;;7.40;4.33;;;16.70;31.20;;;;;;5008065;28;20986;-65
2021/03/28 12:55:29;;;;;;;6.50;2.53;;;16.70;31.70;;;;;;5005608;28;20541;-65
2021/03/28 12:57:55;;;;;;;7.40;2.10;;;16.80;31.80;;;;;;4991182;28;20447;-65
2021/03/28 13:00:39;;;;;;;7.97;3.47;;;16.90;31.40;;;;;;5014722;28;20463;-65
2021/03/28 13:03:23;;;;;;;3.87;2.47;;;16.90;30.80;;;;;;5008524;28;20534;-66
2021/03/28 13:06:00;;;;;;;4.00;2.57;;;17.10;30.20;;;;;;5006680;28;20427;-67
2021/03/28 13:08:26;;;;;;;7.00;2.70;;;17.30;31.10;;;;;;5007804;28;20509;-66
2021/03/28 13:11:03;;;;;;;4.90;2.10;;;17.50;30.40;;;;;;5004417;28;20542;-63
2021/03/28 13:13:37;;;;;;;10.27;3.07;;;17.70;31.00;;;;;;5005196;28;20168;-62
2021/03/28 13:16:03;;;;;;;4.67;2.47;;;17.80;30.90;;;;;;5011419;28;20445;-63
2021/03/28 13:18:31;;;;;;;8.90;2.67;;;18.10;30.20;;;;;;4996461;28;20964;-64
2021/03/28 13:21:07;;;;;;;4.33;2.60;;;18.10;29.20;;;;;;4999367;28;20212;-64
2021/03/28 13:23:39;;;;;;;4.17;2.10;;;18.10;30.10;;;;;;5008337;28;20900;-63
2021/03/28 13:26:33;;;;;;;7.00;2.73;;;18.10;30.00;;;;;;5010266;28;20423;-63
2021/03/28 13:29:22;;;;;;;4.23;2.03;;;18.20;29.90;;;;;;4999873;28;20430;-64
2021/03/28 13:31:57;;;;;;;24.17;3.30;;;18.20;31.30;;;;;;5008140;28;20423;-63
2021/03/28 13:34:32;;;;;;;5.73;2.30;;;18.40;32.20;;;;;;5002872;28;20490;-65
2021/03/28 13:37:41;;;;;;;8.93;4.93;;;18.60;29.90;;;;;;5002904;28;20772;-64
2021/03/28 13:40:14;;;;;;;4.30;2.50;;;18.70;29.40;;;;;;4996787;28;20460;-66
2021/03/28 13:42:51;;;;;;;3.97;2.07;;;18.70;29.60;;;;;;5001932;28;20561;-64
2021/03/28 13:45:16;;;;;;;19.27;7.53;;;18.70;29.50;;;;;;5009364;28;20523;-66
2021/03/28 13:47:50;;;;;;;10.17;2.67;;;18.80;30.70;;;;;;5006284;28;20525;-64
2021/03/28 13:50:28;;;;;;;2.40;2.20;;;19.00;30.60;;;;;;5012685;28;20771;-63
2021/03/28 13:52:55;;;;;;;5.27;2.30;;;19.30;30.30;;;;;;5018146;28;20527;-66
2021/03/28 13:55:24;;;;;;;7.60;3.33;;;19.30;29.00;;;;;;5013241;28;20431;-66
2021/03/28 13:57:50;;;;;;;8.17;3.00;;;19.30;30.10;;;;;;4999969;28;21072;-64
2021/03/28 14:00:19;;;;;;;5.23;3.90;;;19.40;29.90;;;;;;4999489;28;22346;-67
2021/03/28 14:02:45;;;;;;;4.27;2.40;;;19.50;30.40;;;;;;4999451;28;20439;-67
2021/03/28 14:05:15;;;;;;;7.03;3.47;;;19.40;29.70;;;;;;5006725;28;20455;-68
2021/03/28 14:07:41;;;;;;;10.13;3.20;;;19.20;30.00;;;;;;5002829;28;20438;-67
2021/03/28 14:10:16;;;;;;;7.83;3.20;;;19.10;30.00;;;;;;4997549;28;20514;-69
2021/03/28 14:12:54;;;;;;;8.10;3.03;;;19.10;30.60;;;;;;5000481;28;20176;-67
2021/03/28 14:15:25;;;;;;;7.23;2.80;;;19.10;30.00;;;;;;5003673;28;21313;-68
2021/03/28 14:18:00;;;;;;;5.93;2.93;;;19.10;30.80;;;;;;5010171;28;20887;-68
2021/03/28 14:20:31;;;;;;;15.00;5.97;;;19.10;30.30;;;;;;5008534;28;20446;-69
2021/03/28 14:23:11;;;;;;;5.30;2.37;;;19.00;30.00;;;;;;5004754;28;20526;-68